Time;durP1;ratioP1;P1;durP2;ratioP2;P2;SDS_P1;SDS_P2;PMS_P1;PMS_P2;Temp;Humidity;BMP_temperature;BMP_pressure;BME280_temperature;BME280_humidity;BME280_pressure;Samples;Min_cycle;Max_cycle;Signal;HPM_P1;HPM_P2
2023/02/24 00:01:37;;;;;;;7.88;1.42;;;;;;;3.74;100.00;101037.66;6245094;28;20052;-73
2023/02/24 00:04:39;;;;;;;11.60;1.10;;;;;;;3.58;100.00;101036.25;6246238;28;20060;-73
2023/02/24 00:07:40;;;;;;;3.83;1.67;;;;;;;3.56;100.00;101031.09;6245521;28;20048;-73
2023/02/24 00:10:42;;;;;;;9.80;1.00;;;;;;;3.58;100.00;101033.66;6250051;28;20049;-73
2023/02/24 00:13:45;;;;;;;12.30;1.67;;;;;;;3.55;100.00;101031.13;6245248;28;20068;-73
2023/02/24 00:16:49;;;;;;;7.28;1.42;;;;;;;3.49;100.00;101019.09;6225306;28;21431;-73
2023/02/24 00:19:50;;;;;;;7.90;0.95;;;;;;;3.44;100.00;101023.53;6246835;28;20088;-73
2023/02/24 00:22:51;;;;;;;1.60;0.77;;;;;;;3.37;100.00;101015.91;6249930;28;20048;-73
2023/02/24 00:25:59;;;;;;;5.35;1.30;;;;;;;3.36;100.00;101015.06;6242291;28;20072;-73
2023/02/24 00:29:04;;;;;;;15.13;2.20;;;;;;;3.29;100.00;101023.84;6249509;28;20049;-73
2023/02/24 00:32:11;;;;;;;5.30;2.10;;;;;;;3.29;100.00;101014.31;6248985;28;20379;-73
2023/02/24 00:35:12;;;;;;;13.35;1.95;;;;;;;3.36;100.00;101016.78;6246158;28;20049;-73
2023/02/24 00:38:14;;;;;;;5.25;0.90;;;;;;;3.40;100.00;101016.69;6253936;28;20050;-73
2023/02/24 00:41:18;;;;;;;12.13;1.13;;;;;;;3.39;100.00;101011.53;6254281;28;20060;-73
2023/02/24 00:44:23;;;;;;;9.48;1.58;;;;;;;3.32;100.00;101003.00;6253859;28;20057;-73
2023/02/24 00:47:25;;;;;;;9.73;1.70;;;;;;;3.29;100.00;101003.06;6253668;28;20400;-73
2023/02/24 00:50:27;;;;;;;5.32;1.05;;;;;;;3.25;100.00;100996.22;6253977;28;20438;-73
2023/02/24 00:53:28;;;;;;;2.53;0.90;;;;;;;3.26;100.00;100998.75;6253455;28;20041;-73
2023/02/24 00:56:30;;;;;;;2.72;0.98;;;;;;;3.27;100.00;100995.31;6251973;28;20056;-73
2023/02/24 00:59:31;;;;;;;7.35;1.05;;;;;;;3.29;100.00;100987.47;6261892;28;20063;-73
2023/02/24 01:02:34;;;;;;;11.65;3.53;;;;;;;3.25;100.00;100983.22;6259120;28;20095;-73
2023/02/24 01:05:36;;;;;;;6.22;1.05;;;;;;;3.27;100.00;100978.84;6228896;28;20042;-73
2023/02/24 01:08:46;;;;;;;4.47;1.10;;;;;;;3.25;100.00;100970.25;6229044;28;20046;-73
2023/02/24 01:15:10;;;;;;;5.10;1.15;;;;;;;3.30;100.00;100961.47;6228619;28;20058;-74
2023/02/24 01:18:12;;;;;;;16.73;1.35;;;;;;;3.32;100.00;100953.66;6244804;28;20060;-73
2023/02/24 01:21:14;;;;;;;6.40;1.17;;;;;;;3.29;100.00;100951.13;6237213;28;20049;-74
2023/02/24 01:24:15;;;;;;;1.85;0.60;;;;;;;3.30;100.00;100945.88;6252914;28;20056;-73
2023/02/24 01:27:18;;;;;;;8.15;1.30;;;;;;;3.29;100.00;100945.91;6251383;28;20060;-73
2023/02/24 01:30:20;;;;;;;9.90;1.25;;;;;;;3.30;100.00;100939.84;6252902;28;20064;-74
2023/02/24 01:33:22;;;;;;;15.32;1.48;;;;;;;3.42;100.00;100943.94;6252872;28;20041;-73
2023/02/24 01:36:25;;;;;;;9.95;1.17;;;;;;;3.38;100.00;100929.28;6252739;28;20049;-73
2023/02/24 01:39:27;;;;;;;7.63;1.10;;;;;;;3.44;100.00;100923.97;6252895;28;20472;-73
2023/02/24 01:42:28;;;;;;;4.07;0.90;;;;;;;3.39;100.00;100915.41;6252739;28;20052;-73
2023/02/24 01:45:35;;;;;;;5.03;0.85;;;;;;;3.36;100.00;100913.75;6251479;28;20068;-73
2023/02/24 01:48:38;;;;;;;1.45;0.65;;;;;;;3.41;100.00;100909.31;6252742;28;20071;-73
2023/02/24 01:51:44;;;;;;;7.55;1.00;;;;;;;3.44;100.00;100903.19;6252312;28;20049;-74
2023/02/24 01:54:53;;;;;;;4.78;0.93;;;;;;;3.46;100.00;100901.41;6252460;28;20522;-73
2023/02/24 01:57:56;;;;;;;3.20;0.68;;;;;;;3.49;100.00;100894.38;6250433;28;20045;-73
2023/02/24 02:00:57;;;;;;;6.32;2.97;;;;;;;3.47;100.00;100890.13;6252411;28;20053;-73
2023/02/24 02:04:05;;;;;;;5.53;0.88;;;;;;;3.52;100.00;100889.13;6251972;28;20046;-73
2023/02/24 02:07:08;;;;;;;6.93;1.02;;;;;;;3.43;100.00;100883.28;6252073;28;20056;-74
2023/02/24 02:10:12;;;;;;;3.03;0.90;;;;;;;3.41;100.00;100885.09;6244154;28;20188;-73
2023/02/24 02:13:19;;;;;;;2.38;0.85;;;;;;;3.41;100.00;100882.50;6243784;28;20357;-73
2023/02/24 02:16:41;;;;;;;6.50;1.58;;;;;;;3.36;100.00;100880.00;6251744;28;20061;-73
2023/02/24 02:20:14;;;;;;;7.45;0.93;;;;;;;3.34;100.00;100876.56;6251918;28;20060;-73
2023/02/24 02:23:48;;;;;;;7.95;1.10;;;;;;;3.31;100.00;100868.81;6251782;28;20085;-73
2023/02/24 02:27:22;;;;;;;2.67;1.13;;;;;;;3.34;100.00;100868.75;6249935;28;20349;-73
2023/02/24 02:30:47;;;;;;;4.05;1.23;;;;;;;3.35;100.00;100862.66;6253185;28;20049;-73
2023/02/24 02:34:10;;;;;;;2.38;0.98;;;;;;;3.29;100.00;100855.03;6233457;28;20045;-73
2023/02/24 02:37:19;;;;;;;10.45;1.35;;;;;;;3.27;100.00;100851.59;6226650;28;20131;-73
2023/02/24 02:40:26;;;;;;;3.30;1.17;;;;;;;3.28;100.00;100853.31;6245562;28;20049;-73
2023/02/24 02:43:32;;;;;;;7.30;1.15;;;;;;;3.31;100.00;100846.28;6238839;28;20061;-73
2023/02/24 02:46:40;;;;;;;6.05;1.70;;;;;;;3.27;100.00;100838.59;6226515;28;20319;-73
2023/02/24 02:49:47;;;;;;;6.32;1.55;;;;;;;3.27;100.00;100833.41;6230638;28;20054;-73
2023/02/24 02:52:53;;;;;;;7.88;1.10;;;;;;;3.24;100.00;100828.31;6250996;28;20045;-73
2023/02/24 02:56:00;;;;;;;7.72;1.25;;;;;;;3.21;100.00;100828.34;6248155;28;20052;-73
2023/02/24 02:59:04;;;;;;;11.20;1.52;;;;;;;3.16;100.00;100827.59;6251085;28;20057;-73
2023/02/24 03:02:13;;;;;;;11.05;1.13;;;;;;;3.18;100.00;100818.03;6250875;28;20052;-73
2023/02/24 03:05:20;;;;;;;4.32;0.80;;;;;;;3.25;100.00;100815.28;6258746;28;20049;-73
2023/02/24 03:08:26;;;;;;;6.22;1.42;;;;;;;3.20;100.00;100805.88;6243666;28;20449;-73
2023/02/24 03:11:31;;;;;;;5.38;1.00;;;;;;;3.29;100.00;100808.28;6244959;28;20049;-73
2023/02/24 03:14:36;;;;;;;6.03;1.00;;;;;;;3.31;100.00;100799.53;6256013;28;20065;-73
2023/02/24 03:17:44;;;;;;;3.72;1.00;;;;;;;3.28;100.00;100803.97;6250586;28;20128;-73
2023/02/24 03:20:51;;;;;;;5.13;0.90;;;;;;;3.25;100.00;100797.09;6250561;28;20075;-73
2023/02/24 03:23:53;;;;;;;2.38;0.82;;;;;;;3.25;100.00;100796.25;6250338;28;20058;-73
2023/02/24 03:27:05;;;;;;;1.50;1.05;;;;;;;3.24;100.00;100791.94;6248669;28;20056;-73
2023/02/24 03:30:15;;;;;;;4.55;1.17;;;;;;;3.25;100.00;100785.84;6250656;28;20045;-73
2023/02/24 03:33:23;;;;;;;2.70;0.28;;;;;;;3.29;100.00;100779.72;6249697;28;20042;-73
2023/02/24 03:36:25;;;;;;;5.05;0.70;;;;;;;3.29;100.00;100766.72;6225892;28;20442;-73
2023/02/24 03:39:27;;;;;;;1.60;0.55;;;;;;;3.33;100.00;100773.56;6227683;28;20358;-73
2023/02/24 03:42:32;;;;;;;2.83;0.70;;;;;;;3.28;100.00;100759.81;6250262;28;20354;-73
2023/02/24 03:45:39;;;;;;;3.92;0.77;;;;;;;3.28;100.00;100757.22;6250072;28;20116;-73
2023/02/24 03:48:52;;;;;;;7.60;1.02;;;;;;;3.24;100.00;100753.84;6243996;28;20054;-73
2023/02/24 03:52:09;;;;;;;1.10;0.50;;;;;;;3.26;100.00;100746.84;6247470;28;20049;-73
2023/02/24 03:55:22;;;;;;;3.42;0.82;;;;;;;3.24;100.00;100751.25;6249967;28;20417;-73
2023/02/24 03:58:34;;;;;;;1.38;0.32;;;;;;;3.25;100.00;100744.31;6238303;28;20060;-73
2023/02/24 04:01:45;;;;;;;1.88;0.73;;;;;;;3.22;100.00;100746.97;6250218;28;20042;-73
2023/02/24 04:04:51;;;;;;;6.82;0.50;;;;;;;3.24;100.00;100743.44;6249951;28;20129;-73
2023/02/24 04:07:59;;;;;;;1.35;0.82;;;;;;;3.20;100.00;100733.19;6251450;28;20049;-73
2023/02/24 04:11:04;;;;;;;3.80;0.73;;;;;;;3.14;100.00;100726.38;6255126;28;20061;-73
2023/02/24 04:14:09;;;;;;;2.17;0.70;;;;;;;3.19;100.00;100721.09;6254613;28;20269;-73
2023/02/24 04:17:18;;;;;;;0.47;0.47;;;;;;;3.10;100.00;100718.72;6254389;28;20060;-73
2023/02/24 04:20:22;;;;;;;1.13;0.50;;;;;;;3.15;100.00;100714.25;6262250;28;20135;-73
2023/02/24 04:23:30;;;;;;;5.20;1.42;;;;;;;3.21;100.00;100707.16;6247568;28;20057;-73
2023/02/24 04:26:33;;;;;;;1.95;0.30;;;;;;;3.12;100.00;100704.78;6252573;28;20463;-73
2023/02/24 04:29:45;;;;;;;7.20;1.38;;;;;;;3.11;100.00;100700.47;6254062;28;20042;-73
2023/02/24 04:32:47;;;;;;;1.27;0.73;;;;;;;3.15;100.00;100706.47;6254470;28;20052;-73
2023/02/24 04:35:50;;;;;;;7.25;0.70;;;;;;;3.12;100.00;100694.41;6253835;28;20164;-73
2023/02/24 04:38:53;;;;;;;0.20;0.20;;;;;;;3.21;100.00;100690.72;6257074;28;20377;-73
2023/02/24 04:41:56;;;;;;;5.65;0.63;;;;;;;3.20;100.00;100681.25;6257400;28;20049;-73
2023/02/24 04:44:58;;;;;;;1.95;0.60;;;;;;;3.15;100.00;100670.13;6233644;28;20052;-73
2023/02/24 04:48:01;;;;;;;0.95;0.50;;;;;;;3.20;100.00;100663.06;6223516;28;20184;-73
2023/02/24 04:51:05;;;;;;;3.95;0.80;;;;;;;3.17;100.00;100666.56;6208942;28;20557;-72
2023/02/24 04:54:08;;;;;;;4.70;0.70;;;;;;;3.13;100.00;100648.50;6230907;28;20691;-73
2023/02/24 04:57:09;;;;;;;0.57;0.57;;;;;;;3.05;100.00;100649.56;6228170;28;20588;-73
2023/02/24 05:00:19;;;;;;;2.45;0.75;;;;;;;3.04;100.00;100644.41;6232221;28;20134;-73
2023/02/24 05:03:27;;;;;;;4.22;1.10;;;;;;;3.06;100.00;100640.03;6232378;28;20076;-73
2023/02/24 05:06:28;;;;;;;6.40;1.10;;;;;;;3.09;100.00;100632.19;6231237;28;20569;-73
2023/02/24 05:09:31;;;;;;;2.58;1.13;;;;;;;3.04;100.00;100627.09;6232218;28;20045;-73
2023/02/24 05:12:32;;;;;;;4.10;0.77;;;;;;;3.05;100.00;100617.56;6233636;28;20060;-72
2023/02/24 05:15:33;;;;;;;9.00;1.23;;;;;;;3.07;100.00;100612.31;6231123;28;20640;-73
2023/02/24 05:18:35;;;;;;;5.70;0.85;;;;;;;3.02;100.00;100602.91;6228402;28;20651;-73
2023/02/24 05:21:36;;;;;;;7.40;1.08;;;;;;;3.02;100.00;100599.47;6206603;28;20104;-73
2023/02/24 05:24:39;;;;;;;6.35;0.90;;;;;;;3.01;100.00;100590.81;6236769;28;20494;-73
2023/02/24 05:27:41;;;;;;;2.10;0.90;;;;;;;2.99;100.00;100590.00;6233991;28;20389;-73
2023/02/24 05:30:43;;;;;;;3.45;0.68;;;;;;;3.04;100.00;100588.16;6236318;28;20066;-73
2023/02/24 05:33:48;;;;;;;9.23;1.15;;;;;;;3.04;100.00;100580.38;6238511;28;20607;-73
2023/02/24 05:36:50;;;;;;;0.98;0.70;;;;;;;2.88;100.00;100578.19;6237410;28;20358;-73
2023/02/24 05:39:56;;;;;;;1.83;0.50;;;;;;;2.91;100.00;100565.16;6233293;28;20439;-73
2023/02/24 05:43:02;;;;;;;3.88;0.80;;;;;;;2.92;100.00;100556.47;6233158;28;20440;-72
2023/02/24 05:46:05;;;;;;;4.53;1.00;;;;;;;2.92;100.00;100553.88;6232239;28;20128;-73
2023/02/24 05:49:13;;;;;;;2.10;0.90;;;;;;;2.76;100.00;100543.00;6237276;28;20438;-73
2023/02/24 05:52:14;;;;;;;4.13;0.50;;;;;;;2.78;100.00;100539.50;6244427;28;20054;-72
2023/02/24 05:55:17;;;;;;;4.05;1.05;;;;;;;2.76;100.00;100530.03;6250593;28;20137;-73
2023/02/24 05:58:18;;;;;;;9.23;0.70;;;;;;;2.73;100.00;100536.16;6252036;28;20402;-73
2023/02/24 06:01:20;;;;;;;1.38;0.73;;;;;;;2.69;100.00;100524.16;6252068;28;20361;-72
2023/02/24 06:04:38;;;;;;;5.70;1.27;;;;;;;2.75;100.00;100518.78;6252258;28;20054;-72
2023/02/24 06:07:39;;;;;;;4.05;0.68;;;;;;;2.72;100.00;100516.25;6252119;28;20045;-72
2023/02/24 06:10:45;;;;;;;0.70;0.70;;;;;;;2.79;100.00;100502.25;6248356;28;20057;-72
2023/02/24 06:13:47;;;;;;;0.95;0.60;;;;;;;2.70;100.00;100505.09;6247985;28;20075;-72
2023/02/24 06:16:49;;;;;;;5.85;1.20;;;;;;;2.63;100.00;100500.09;6249114;28;20053;-73
2023/02/24 06:19:52;;;;;;;3.95;0.63;;;;;;;2.70;100.00;100499.91;6235586;28;20050;-73
2023/02/24 06:22:56;;;;;;;2.17;0.60;;;;;;;2.70;100.00;100488.69;6245042;28;20452;-72
2023/02/24 06:26:03;;;;;;;1.02;0.75;;;;;;;2.73;100.00;100494.66;6238495;28;20049;-72
2023/02/24 06:29:04;;;;;;;4.00;0.82;;;;;;;2.76;100.00;100484.16;6241055;28;20132;-72
2023/02/24 06:32:07;;;;;;;2.10;0.73;;;;;;;2.82;100.00;100479.72;6258334;28;20052;-73
2023/02/24 06:35:09;;;;;;;1.27;0.80;;;;;;;2.80;100.00;100472.81;6227889;28;20105;-73
2023/02/24 06:38:10;;;;;;;2.03;0.57;;;;;;;2.77;100.00;100461.66;6243330;28;20052;-72
2023/02/24 06:41:13;;;;;;;6.30;0.70;;;;;;;2.80;100.00;100456.41;6251528;28;20049;-72
2023/02/24 06:44:14;;;;;;;4.65;0.80;;;;;;;2.76;100.00;100462.56;6243187;28;20053;-72
2023/02/24 06:47:17;;;;;;;1.13;0.65;;;;;;;2.82;100.00;100454.63;6251140;28;20061;-72
2023/02/24 06:50:20;;;;;;;1.55;0.73;;;;;;;2.84;100.00;100441.63;6251167;28;20512;-72
2023/02/24 06:53:22;;;;;;;2.38;0.50;;;;;;;2.84;100.00;100449.41;6250783;28;20045;-73
2023/02/24 06:56:26;;;;;;;9.07;1.10;;;;;;;2.79;100.00;100442.59;6248961;28;20045;-73
2023/02/24 06:59:28;;;;;;;5.40;1.13;;;;;;;2.82;100.00;100443.38;6250805;28;20049;-73
2023/02/24 07:02:38;;;;;;;2.03;0.93;;;;;;;2.87;100.00;100441.53;6250938;28;20120;-72
2023/02/24 07:05:39;;;;;;;0.85;0.50;;;;;;;2.80;100.00;100431.31;6250551;28;20050;-72
2023/02/24 07:08:42;;;;;;;7.25;0.85;;;;;;;2.81;100.00;100432.16;6250878;28;20052;-72
2023/02/24 07:11:50;;;;;;;5.13;1.40;;;;;;;2.87;100.00;100425.97;6250671;28;20140;-72
2023/02/24 07:14:52;;;;;;;3.20;0.82;;;;;;;2.89;100.00;100421.56;6250644;28;20042;-72
2023/02/24 07:17:53;;;;;;;1.95;0.90;;;;;;;2.86;100.00;100421.66;6250369;28;20046;-72
2023/02/24 07:20:54;;;;;;;8.85;1.42;;;;;;;2.76;100.00;100414.13;6250752;28;20052;-72
2023/02/24 07:23:57;;;;;;;4.82;0.93;;;;;;;2.90;100.00;100412.91;6248726;28;20053;-73
2023/02/24 07:27:02;;;;;;;2.97;0.60;;;;;;;2.90;100.00;100405.97;6250181;28;20331;-73
2023/02/24 07:30:05;;;;;;;3.10;0.80;;;;;;;2.90;100.00;100405.97;6250337;28;20361;-73
2023/02/24 07:33:07;;;;;;;0.57;0.57;;;;;;;2.88;100.00;100399.97;6257497;28;20326;-72
2023/02/24 07:36:08;;;;;;;2.10;0.68;;;;;;;2.95;100.00;100409.31;6234274;28;20373;-72
2023/02/24 07:39:10;;;;;;;1.70;0.80;;;;;;;2.95;100.00;100395.44;6250085;28;20442;-73
2023/02/24 07:42:13;;;;;;;1.40;1.30;;;;;;;2.93;100.00;100377.34;6251696;28;20049;-73
2023/02/24 07:45:15;;;;;;;13.10;0.98;;;;;;;2.96;100.00;100386.78;6239153;28;20077;-73
2023/02/24 07:48:16;;;;;;;1.88;0.95;;;;;;;2.75;100.00;100376.09;6255201;28;20057;-73
2023/02/24 07:51:20;;;;;;;6.70;0.57;;;;;;;2.79;100.00;100377.72;6255129;28;20057;-72
2023/02/24 07:54:24;;;;;;;1.00;0.70;;;;;;;2.76;100.00;100369.16;6247362;28;20049;-72
2023/02/24 07:57:27;;;;;;;1.88;1.10;;;;;;;2.72;100.00;100363.19;6254839;28;20057;-72
2023/02/24 08:00:29;;;;;;;5.20;1.40;;;;;;;2.68;100.00;100361.59;6255231;28;20053;-73
2023/02/24 08:03:32;;;;;;;1.02;0.70;;;;;;;2.65;100.00;100361.69;6254724;28;20430;-72
2023/02/24 08:06:37;;;;;;;0.63;0.43;;;;;;;2.69;100.00;100346.88;6254681;28;20468;-73
2023/02/24 08:10:09;;;;;;;4.90;1.48;;;;;;;2.59;100.00;100346.28;6253534;28;20416;-73
2023/02/24 08:13:10;;;;;;;3.85;0.85;;;;;;;2.55;100.00;100344.66;6238051;28;20045;-72
2023/02/24 08:16:12;;;;;;;4.57;1.20;;;;;;;2.51;100.00;100340.44;6240588;28;20056;-72
2023/02/24 08:19:19;;;;;;;1.65;0.60;;;;;;;2.40;100.00;100345.91;6246134;28;20057;-72
2023/02/24 08:22:23;;;;;;;1.63;0.75;;;;;;;2.37;100.00;100337.38;6245344;28;20055;-72
2023/02/24 08:25:34;;;;;;;1.83;0.68;;;;;;;2.33;100.00;100328.81;6256543;28;20053;-75
2023/02/24 08:28:38;;;;;;;3.15;1.20;;;;;;;2.42;100.00;100313.03;6232765;28;20187;-72
2023/02/24 08:31:39;;;;;;;4.55;1.08;;;;;;;2.38;100.00;100307.97;6254525;28;20428;-72
2023/02/24 08:34:43;;;;;;;0.60;0.60;;;;;;;2.35;100.00;100308.03;6258553;28;20049;-71
2023/02/24 08:37:46;;;;;;;4.57;0.88;;;;;;;2.34;100.00;100302.00;6241980;28;20081;-71
2023/02/24 08:40:50;;;;;;;2.97;0.82;;;;;;;2.30;100.00;100287.41;6240913;28;20046;-71
2023/02/24 08:43:53;;;;;;;5.75;0.80;;;;;;;2.28;100.00;100287.47;6234215;28;20350;-71
2023/02/24 08:46:55;;;;;;;6.65;1.05;;;;;;;2.23;100.00;100281.56;6234274;28;20048;-72
2023/02/24 08:49:59;;;;;;;2.40;1.08;;;;;;;2.14;100.00;100286.97;6241132;28;20045;-72
2023/02/24 08:53:00;;;;;;;0.60;0.60;;;;;;;2.06;100.00;100277.69;6254199;28;20184;-72
2023/02/24 08:56:08;;;;;;;3.25;1.33;;;;;;;2.10;100.00;100276.72;6249110;28;20049;-72
2023/02/24 08:59:27;;;;;;;3.00;0.98;;;;;;;2.17;100.00;100273.91;6241365;28;20056;-71
2023/02/24 09:02:29;;;;;;;6.32;1.40;;;;;;;2.06;100.00;100277.69;6241007;28;20065;-73
2023/02/24 09:05:32;;;;;;;4.70;1.13;;;;;;;2.05;100.00;100279.44;6234644;28;20046;-72
2023/02/24 09:08:37;;;;;;;4.50;1.42;;;;;;;2.03;100.00;100261.31;6239936;28;20069;-72
2023/02/24 09:11:42;;;;;;;5.57;1.55;;;;;;;1.99;100.00;100275.25;6229019;28;20045;-73
2023/02/24 09:14:45;;;;;;;7.47;1.10;;;;;;;1.99;100.00;100257.09;6228580;28;20081;-73
2023/02/24 09:18:05;;;;;;;4.78;1.70;;;;;;;2.04;100.00;100254.41;6233778;28;20053;-74
2023/02/24 09:24:28;;;;;;;2.97;1.73;;;;;;;1.98;100.00;100231.25;6245850;28;20054;-73
2023/02/24 09:27:29;;;;;;;17.45;2.00;;;;;;;1.91;100.00;100221.94;6234942;28;20050;-74
2023/02/24 09:30:49;;;;;;;4.07;1.00;;;;;;;1.95;100.00;100213.19;6238730;28;20053;-73
2023/02/24 09:33:51;;;;;;;2.10;1.45;;;;;;;1.99;100.00;100212.22;6230275;28;20331;-73
2023/02/24 09:37:01;;;;;;;1.65;1.00;;;;;;;1.99;100.00;100202.69;6234182;28;20052;-74
2023/02/24 09:43:23;;;;;;;;;;;;;;;2.12;100.00;100192.84;6232444;28;20438;-74
2023/02/24 09:46:26;;;;;;;0.75;0.65;;;;;;;2.15;100.00;100176.38;6241986;28;19978;-74
2023/02/24 09:49:38;;;;;;;2.45;1.05;;;;;;;2.12;100.00;100166.09;6236006;28;20054;-74
2023/02/24 09:52:41;;;;;;;2.63;1.50;;;;;;;2.13;100.00;100171.22;6241741;28;20052;-74
2023/02/24 09:55:59;;;;;;;6.65;1.25;;;;;;;2.13;100.00;100173.81;6235640;28;20053;-74
2023/02/24 09:59:11;;;;;;;3.85;1.30;;;;;;;2.17;100.00;100165.06;6235001;28;20049;-74
2023/02/24 10:02:31;;;;;;;2.63;1.25;;;;;;;2.19;100.00;100152.91;6230131;28;20070;-73
2023/02/24 10:05:38;;;;;;;1.75;1.33;;;;;;;2.09;100.00;100143.72;6239356;28;20120;-74
2023/02/24 10:08:54;;;;;;;4.57;1.95;;;;;;;2.08;100.00;100136.81;6243693;28;20056;-74
2023/02/24 10:12:03;;;;;;;8.05;1.75;;;;;;;2.03;100.00;100125.72;6252022;28;20438;-73
2023/02/24 10:15:43;;;;;;;4.85;1.85;;;;;;;2.04;100.00;100130.00;6251507;28;20346;-73
2023/02/24 10:18:59;;;;;;;1.52;1.42;;;;;;;2.12;100.00;100127.22;6234601;28;20053;-73
2023/02/24 10:22:07;;;;;;;4.45;2.60;;;;;;;2.08;100.00;100115.22;6248448;28;20048;-73
2023/02/24 10:25:25;;;;;;;5.07;2.97;;;;;;;2.10;100.00;100106.53;6251418;28;20360;-73
2023/02/24 10:28:35;;;;;;;3.08;1.70;;;;;;;2.10;100.00;100109.13;6251559;28;20052;-74
2023/02/24 10:31:46;;;;;;;4.38;1.90;;;;;;;2.10;100.00;100103.09;6251418;28;20187;-73
2023/02/24 10:34:49;;;;;;;14.85;1.65;;;;;;;2.11;100.00;100104.78;6241170;28;20046;-74
2023/02/24 10:37:50;;;;;;;3.92;1.98;;;;;;;2.09;100.00;100088.41;6234741;28;20439;-73
2023/02/24 10:40:56;;;;;;;2.78;1.73;;;;;;;2.17;100.00;100086.44;6226983;28;20053;-75
2023/02/24 10:43:58;;;;;;;4.32;2.47;;;;;;;2.11;100.00;100081.47;6240409;28;20202;-74
2023/02/24 10:47:10;;;;;;;7.07;2.30;;;;;;;2.20;100.00;100073.41;6250948;28;20072;-74
2023/02/24 10:50:24;;;;;;;10.82;2.33;;;;;;;2.18;100.00;100073.47;6251232;28;20503;-73
2023/02/24 10:53:33;;;;;;;1.85;1.65;;;;;;;2.26;100.00;100070.63;6248527;28;20053;-75
2023/02/24 10:56:43;;;;;;;5.15;2.63;;;;;;;2.22;100.00;100064.66;6250596;28;20140;-73
2023/02/24 11:00:19;;;;;;;2.45;1.63;;;;;;;2.17;100.00;100058.78;6255194;28;20147;-73
2023/02/24 11:03:34;;;;;;;6.28;2.20;;;;;;;2.13;100.00;100046.81;6242845;28;20081;-74
2023/02/24 11:10:25;;;;;;;4.78;2.38;;;;;;;2.10;100.00;100043.47;6346996;27;20351;-75
2023/02/24 11:20:21;;;;;;;4.20;2.38;;;;;;;2.07;100.00;100015.91;6332160;28;20044;-76
2023/02/24 11:23:26;;;;;;;2.97;2.03;;;;;;;2.12;100.00;100026.97;6338875;28;20051;-76
2023/02/24 11:26:35;;;;;;;2.95;2.25;;;;;;;2.05;100.00;100015.13;6329818;28;20048;-75
2023/02/24 11:29:47;;;;;;;2.97;2.08;;;;;;;2.07;100.00;100009.88;6321355;28;20040;-75
2023/02/24 11:33:05;;;;;;;2.88;1.98;;;;;;;2.08;100.00;100008.97;6321515;28;20040;-75
2023/02/24 11:36:16;;;;;;;2.13;1.52;;;;;;;2.10;100.00;99984.72;6320946;28;20044;-75
2023/02/24 11:39:41;;;;;;;2.33;2.08;;;;;;;2.07;100.00;99987.41;6330016;28;20047;-76
2023/02/24 11:42:48;;;;;;;2.72;1.63;;;;;;;2.04;100.00;99992.66;6346293;28;20044;-75
2023/02/24 11:45:54;;;;;;;2.58;1.58;;;;;;;2.07;100.00;99989.16;6346227;28;20044;-75
2023/02/24 11:48:59;;;;;;;2.22;1.63;;;;;;;2.08;100.00;99977.88;6346040;28;20040;-76
2023/02/24 11:52:03;;;;;;;3.47;1.73;;;;;;;2.08;100.00;99973.53;6344420;28;20355;-75
2023/02/24 11:55:14;;;;;;;2.47;1.50;;;;;;;2.03;100.00;99965.06;6344305;28;20047;-75
2023/02/24 11:58:25;;;;;;;6.82;2.20;;;;;;;2.06;100.00;99958.94;6321039;28;20045;-75
2023/02/24 12:01:31;;;;;;;7.00;2.25;;;;;;;2.16;100.00;99961.19;6329600;28;20123;-75
2023/02/24 12:04:38;;;;;;;1.83;1.58;;;;;;;2.17;100.00;99955.09;6319895;28;20045;-76
2023/02/24 12:07:42;;;;;;;2.63;1.30;;;;;;;2.09;100.00;99961.44;6328389;28;20044;-76
2023/02/24 12:10:49;;;;;;;1.92;1.50;;;;;;;2.11;100.00;99947.53;6324538;28;20428;-75
2023/02/24 12:13:59;;;;;;;2.35;1.83;;;;;;;2.19;100.00;99940.38;6323552;28;20044;-75
2023/02/24 12:17:10;;;;;;;2.28;1.45;;;;;;;2.17;100.00;99936.13;6320123;28;20185;-74
2023/02/24 12:20:20;;;;;;;3.28;1.70;;;;;;;2.27;100.00;99927.16;6334497;28;20498;-75
2023/02/24 12:23:26;;;;;;;1.65;1.55;;;;;;;2.25;100.00;99923.78;6320916;28;20048;-74
2023/02/24 12:26:41;;;;;;;3.47;1.55;;;;;;;2.28;100.00;99921.94;6328502;28;20040;-75
2023/02/24 12:29:54;;;;;;;6.65;1.60;;;;;;;2.29;100.00;99912.41;6311284;28;20047;-75
2023/02/24 12:33:09;;;;;;;5.93;2.50;;;;;;;2.28;100.00;99908.13;6305828;28;20338;-74
2023/02/24 12:36:20;;;;;;;3.72;1.88;;;;;;;2.29;100.00;99908.06;6311143;28;20356;-75
2023/02/24 12:39:30;;;;;;;2.47;1.60;;;;;;;2.35;100.00;99896.63;6312132;28;20056;-75
2023/02/24 12:42:41;;;;;;;2.03;1.30;;;;;;;2.34;100.00;99888.91;6313640;28;20127;-75
2023/02/24 12:45:51;;;;;;;4.15;2.00;;;;;;;2.32;100.00;99896.75;6315695;28;20047;-75
2023/02/24 12:49:10;;;;;;;3.72;1.65;;;;;;;2.36;100.00;99881.94;6316280;28;20061;-75
2023/02/24 12:52:20;;;;;;;3.67;2.17;;;;;;;2.45;100.00;99881.63;6308379;28;20448;-75
2023/02/24 12:55:30;;;;;;;4.22;2.08;;;;;;;2.46;100.00;99868.63;6303454;28;20063;-74
2023/02/24 12:58:34;;;;;;;3.47;2.30;;;;;;;2.53;100.00;99867.50;6313970;28;20044;-75
2023/02/24 13:01:45;;;;;;;4.00;2.53;;;;;;;2.63;100.00;99859.38;6305271;28;20044;-75
2023/02/24 13:04:54;;;;;;;2.60;2.03;;;;;;;2.65;100.00;99858.44;6306439;28;20075;-74
2023/02/24 13:08:15;;;;;;;5.72;2.80;;;;;;;2.71;100.00;99841.81;6320696;28;20048;-76
2023/02/24 13:11:26;;;;;;;3.45;2.50;;;;;;;2.79;100.00;99840.63;6310508;28;20109;-75
2023/02/24 13:14:31;;;;;;;4.35;3.10;;;;;;;2.86;100.00;99836.09;6303388;28;20495;-75
2023/02/24 13:17:34;;;;;;;5.13;3.05;;;;;;;2.96;100.00;99840.03;6310231;28;20169;-75
2023/02/24 13:20:37;;;;;;;4.05;2.97;;;;;;;3.05;100.00;99829.31;6314902;28;20043;-75
2023/02/24 13:23:41;;;;;;;4.15;3.45;;;;;;;3.12;100.00;99831.66;6309071;28;20051;-75
2023/02/24 13:26:43;;;;;;;5.32;3.35;;;;;;;3.15;100.00;99828.97;6301521;28;20052;-75
2023/02/24 13:29:46;;;;;;;3.80;3.03;;;;;;;3.21;100.00;99819.19;6310204;28;20048;-76
2023/02/24 13:33:00;;;;;;;7.40;2.72;;;;;;;3.22;100.00;99810.47;6313558;28;20051;-76
2023/02/24 13:36:09;;;;;;;7.32;3.35;;;;;;;3.20;100.00;99796.72;6310577;28;20348;-77
2023/02/24 13:39:22;;;;;;;6.97;2.72;;;;;;;3.21;100.00;99788.03;6300786;28;20345;-75
2023/02/24 13:42:26;;;;;;;3.72;2.63;;;;;;;3.22;100.00;99787.13;6307442;28;20428;-76
2023/02/24 13:45:29;;;;;;;5.07;3.13;;;;;;;3.24;100.00;99784.47;6301383;28;20059;-75
2023/02/24 13:48:47;;;;;;;4.07;3.20;;;;;;;3.25;100.00;99776.63;6311643;28;20058;-75
2023/02/24 13:51:59;;;;;;;6.25;2.95;;;;;;;3.25;100.00;99774.03;6302803;28;20051;-76
2023/02/24 13:55:24;;;;;;;4.10;2.80;;;;;;;3.29;100.00;99770.41;6305109;28;20467;-75
2023/02/24 13:58:41;;;;;;;5.00;2.08;;;;;;;3.35;100.00;99756.34;6300511;28;20052;-76
2023/02/24 14:01:48;;;;;;;3.92;2.83;;;;;;;3.33;100.00;99768.53;6313022;28;20359;-75
2023/02/24 14:04:52;;;;;;;3.17;2.15;;;;;;;3.35;100.00;99763.28;6302498;28;20049;-76
2023/02/24 14:07:55;;;;;;;5.90;2.70;;;;;;;3.47;100.00;99755.84;6305968;28;20048;-76
2023/02/24 14:10:58;;;;;;;6.03;4.10;;;;;;;3.46;100.00;99761.13;6308909;28;20040;-74
2023/02/24 14:14:00;;;;;;;4.18;3.00;;;;;;;3.46;100.00;99751.56;6302998;28;20048;-75
2023/02/24 14:17:01;;;;;;;7.88;3.53;;;;;;;3.49;100.00;99756.63;6323626;28;20055;-75
2023/02/24 14:20:18;;;;;;;4.50;2.97;;;;;;;3.54;100.00;99741.72;6314107;28;20121;-76
2023/02/24 14:23:23;;;;;;;5.90;3.35;;;;;;;3.56;100.00;99734.69;6309328;28;20040;-75
2023/02/24 14:26:25;;;;;;;7.13;2.85;;;;;;;3.60;100.00;99729.41;6307397;28;20357;-75
2023/02/24 14:29:30;;;;;;;4.07;2.63;;;;;;;3.63;100.00;99734.44;6306880;28;20044;-75
2023/02/24 14:32:33;;;;;;;5.18;2.80;;;;;;;3.58;100.00;99726.84;6305635;28;20356;-75
2023/02/24 14:35:39;;;;;;;7.95;2.85;;;;;;;3.60;100.00;99724.19;6308369;28;20053;-75
2023/02/24 14:38:41;;;;;;;5.28;3.35;;;;;;;3.59;100.00;99715.56;6303426;28;20040;-76
2023/02/24 14:41:43;;;;;;;10.30;2.90;;;;;;;3.62;100.00;99715.41;6309156;28;20387;-76
2023/02/24 14:44:47;;;;;;;6.25;3.40;;;;;;;3.66;100.00;99710.94;6309779;28;20487;-76
2023/02/24 14:47:48;;;;;;;6.22;3.25;;;;;;;3.73;100.00;99702.00;6303774;28;20049;-74
2023/02/24 14:50:52;;;;;;;5.20;3.38;;;;;;;3.68;100.00;99694.41;6302548;28;20047;-75